METAR Data
IDs: Format: Raw Decoded Include TAF

Data at: 1710 UTC 03 Jul 2020

KMIA 031653Z VRB03KT 10SM SCT043 SCT060 SCT170 BKN250 34/22 A2998 RMK AO2 SLP152 CB DSNT S-SW MOV E T03390217 $